Edmonton International, Canada
Current Conditions -  °F | °C
As of 10:00 PM on Monday 20 Oct 2014 (Local Time) from CYEG Reporting Station
Broken Clouds Broken Clouds  
Wind Chill: 45°   Ceiling: 27000
Heat Index: 45°   Visibility: 15mi
Dew Point: 36°   Wind: 2mph
Humidity: 71%   Direction: 210°SSW
Pressure: 29.48"   Gusts: NA
Location:  53.31°N, 113.58°W
Report Text: CYEG 210400Z 21002KT 15SM BKN270 07/02 A2948 RMK CI6 SLP995 DENSITY ALT 2500FT
Loading
Personal Weather Stations






























Interactive Weather Map
Tropical Storm Tracking
New forecast layout! Learn more

10-Day Weather Forecast

Advertisements
Track Severe Weather on mobile